Lake Village, AR

6:48 PM CST on December 28, 2014 (GMT -0600)
Mid Delta Regional | Change Station
CLOSE
Current Station
Airport
Location: Greenville,
Elevation: 131 ft
Nearby Weather Stations

Elev 131 ft 33.48 °N, 90.99 °W | Updated 55 minutes ago

Rain
Rain
42 °F
Feels Like 36 °F
N
10
Wind Variable Wind from North

Today
High -- | Low -- °F
--% Chance of Precip.
Yesterday
High -- | Low -- °F
Precip. -- in
7:07 AM 5:05 PM
First Quarter, 53% visible
Pressure 30.19 in
Visibility 8.0 miles
Clouds Overcast 1000 ft
Windchill 36 °F
Dew Point 40 °F
Humidity 92%
Rainfall 0.02 in
Snow Depth Not available.
UV 0 out of 12
Pollen .40 out of 12
Air Quality Not available.
Flu Activity Not available.
METAR KGLH 282353Z AUTO 36009KT 8SM -RA OVC010 06/04 A3016 RMK AO2 SLP223 P0000 60001 T00560044 10061 20056 50006

More Conditions Fewer Conditions

Pressure 30.19 in
Visibility 8.0 miles
Clouds Overcast 1000 ft
Windchill 36 °F
Dew Point 40 °F
Humidity 92%
Rainfall 0.02 in
Snow Depth Not available.
UV 0 out of 12
Pollen .40 out of 12
Air Quality Not available.
Flu Activity Not available.
METAR KGLH 282353Z AUTO 36009KT 8SM -RA OVC010 06/04 A3016 RMK AO2 SLP223 P0000 60001 T00560044 10061 20056 50006

More Conditions Fewer Conditions

10-Day Weather Forecast

Almanac

Astronomy

Dec. 28, 2014 Rise Set
Actual Time
Civil Twilight
Nautical Twilight
Astronomical Twilight
Moon
Length of Visible Light
Length of Day
Tomorrow will be .
, % of the Moon is Illuminated

Today's Extremes

State Highs State Lows

Community

WunderPhotos

Upload Photos

1,781,477 photos uploaded!

WunderBlogs® & News

Nearby

Air Quality

  Air Quality AQ Index Pollutant
Not available.

Snow Depth

Station Depth Elevation

Earthquake Activity

City Distance Mag. Time & Date
Minimum magnitude displayed is 2.5.

Coastal Water Temperatures

Place Temperature

Nearby Weather Stations